Latest Coastal Weather Observations for Groote Eylandt Airport

IDD60701

Issued at 2:21 pm CST Friday 30 January 2015 (issued every 10 minutes, with the page automatically refreshed every 10 minutes)

About coastal observations | Map of coastal stations | Coastal observations for NT | Marine services | Other Formats
Station Details ID: 014518 Name: GROOTE EYLANDT AIRPORT Lat: -13.97 Lon: 136.46 Height: 13.7 m
Data from the previous 72 hours. | See also: Recent months at Groote Eylandt Airport
Date/Time
CST
Temp

°C
Wind Pressure Rain
since 9am
mm
Weather Cloud Vis
km
Sea
Height
m
Swell
Dir
 
Speed
knots
Gust
knots
hPa Trend Height
m
Period
s
Dir
30/02:00pm 34.9 W 7 10 1004.7 - 0.0 - - 10 - - - -
30/01:30pm 34.8 WSW 6 9 1005.1 - 0.0 - - 10 - - - -
30/01:00pm 34.9 WSW 6 9 1005.4 - 0.0 - - 10 - - - -
30/12:30pm 33.7 WSW 6 9 1005.6 - 0.0 - - 10 - - - -
30/12:00pm 33.5 W 6 9 1005.9 - 0.0 - Mostly clear 10 - - - -
30/11:30am 32.8 W 7 10 1006.3 - 0.0 - - 10 - - - -
30/11:00am 32.5 WNW 6 9 1006.6 - 0.0 - - 10 - - - -
30/10:30am 31.7 W 7 11 1006.8 - 0.0 - - 10 - - - -
30/10:00am 31.6 W 7 11 1006.9 - 0.0 - - 10 - - - -
30/09:30am 31.1 WNW 8 13 1006.9 - 0.0 - - 10 - - - -
30/09:00am 30.6 W 8 12 1006.8 - 0.0 - - 10 - - - -
30/08:30am 30.7 WNW 9 13 1006.7 - 0.0 - - 10 - - - -
30/08:00am 29.8 NW 6 10 1006.6 - 0.0 - - 10 - - - -
30/07:30am 29.3 NW 7 9 1006.6 - 0.0 - - 10 - - - -
30/07:00am 28.7 WNW 4 6 1006.4 - 0.0 - - 10 - - - -
30/06:30am 28.1 W 5 8 1006.1 - 0.0 - - 10 - - - -
30/06:00am 26.0 NNW 2 5 1005.9 - 0.0 - - 10 - - - -
30/05:30am 25.9 CALM 0 0 1005.6 - 0.0 - - 10 - - - -
30/05:00am 26.1 CALM 0 0 1005.4 - 0.0 - - 10 - - - -
30/04:30am 26.1 CALM 0 0 1005.0 - 0.0 - - 10 - - - -
30/04:00am 25.9 CALM 0 0 1004.9 - 0.0 - - 10 - - - -
30/03:30am 25.8 CALM 0 0 1005.0 - 0.0 - - 10 - - - -
30/03:00am 25.8 CALM 0 0 1004.9 - 0.0 - Cloudy 10 - - - -
30/02:30am 25.6 CALM 0 0 1005.0 - 0.0 - - 10 - - - -
30/02:00am 25.7 CALM 0 0 1005.3 - 0.0 - - 10 - - - -
30/01:30am 25.5 CALM 0 0 1005.6 - 0.0 - - 10 - - - -
30/01:00am 25.6 CALM 0 0 1005.9 - 0.0 - - 10 - - - -
30/12:30am 26.0 ESE 3 4 1006.2 - 0.0 - - 10 - - - -
30/12:00am 26.3 CALM 0 0 1006.5 - 0.0 - - 10 - - - -
 
Date/Time
CST
Temp

°C
Wind Pressure Rain
since 9am
mm
Weather Cloud Vis
km
Sea
Height
m
Swell
Dir
 
Speed
knots
Gust
knots
hPa Trend Height
m
Period
s
Dir
29/11:30pm 26.6 CALM 0 0 1006.7 - 0.0 - - 10 - - - -
29/11:00pm 26.9 CALM 0 0 1006.9 - 0.0 - - 10 - - - -
29/10:30pm 27.4 CALM 0 0 1006.8 - 0.0 - - 10 - - - -
29/10:00pm 27.8 CALM 0 0 1006.5 - 0.0 - - 10 - - - -
29/09:30pm 28.8 ENE 3 4 1006.3 - 0.0 - - 10 - - - -
29/09:00pm 29.3 NE 3 4 1006.1 - 0.0 - Cloudy 10 - - - -
29/08:30pm 29.6 NE 4 6 1005.9 - 0.0 - - 10 - - - -
29/08:00pm 29.9 ENE 4 6 1005.5 - 0.0 - - 10 - - - -
29/07:30pm 30.1 E 3 5 1005.1 - 0.0 - - 10 - - - -
29/07:00pm 31.2 S 3 3 1004.7 - 0.0 - - 10 - - - -
29/06:30pm 33.2 S 2 3 1004.4 - 0.0 - - 10 - - - -
29/06:00pm 33.3 S 3 5 1004.3 - 0.0 - - 10 - - - -
29/05:30pm 33.4 S 4 6 1003.9 - 0.0 - - 10 - - - -
29/05:00pm 33.2 SW 5 7 1003.7 - 0.0 - - 10 - - - -
29/04:30pm 33.2 SW 5 9 1003.4 - 0.0 - - 10 - - - -
29/04:00pm 33.2 SW 4 9 1003.7 - 0.0 - - 10 - - - -
29/03:30pm 33.3 SSW 5 7 1003.7 - 0.0 - - 10 - - - -
29/03:00pm 32.5 W 7 11 1003.7 - 0.0 - Mostly clear 10 - - - -
29/02:30pm 32.8 W 7 11 1004.0 - 0.0 - - 10 - - - -
29/02:00pm 32.8 W 7 11 1004.1 - 0.0 - - 10 - - - -
29/01:30pm 32.6 WSW 6 10 1004.5 - 0.0 - - 10 - - - -
29/01:00pm 32.2 SW 6 8 1005.1 - 0.0 - - 10 - - - -
29/12:30pm 31.5 SSW 6 9 1005.5 - 0.0 - - 10 - - - -
29/12:00pm 31.0 WSW 7 11 1006.0 - 0.0 - - 10 - - - -
29/11:30am 30.6 SW 7 12 1006.3 - 0.0 - - 10 - - - -
29/11:00am 30.5 WSW 8 14 1006.6 - 0.0 - - 10 - - - -
29/10:30am 30.4 WSW 7 13 1006.7 - 0.0 - Partly cloudy 10 - - - -
29/10:00am 30.3 W 8 13 1006.6 - 0.0 - Partly cloudy 10 - - - -
29/09:30am 30.5 WSW 6 10 1006.6 - 0.0 - - 10 - - - -
29/09:00am 29.8 WSW 8 13 1006.2 - 0.0 - - 10 - - - -
29/08:30am 29.5 WSW 6 10 1006.0 - 0.0 - - 10 - - - -
29/08:00am 29.1 WSW 7 11 1005.8 - 0.0 - - 10 - - - -
29/07:30am 28.4 WSW 5 8 1005.4 - 0.0 - - 10 - - - -
29/07:00am 27.7 WSW 5 7 1004.8 - 0.0 - - 10 - - - -
29/06:30am 27.0 WSW 5 7 1004.5 - 0.0 - - 10 - - - -
29/06:00am 26.0 W 4 7 1004.0 - 0.0 - Mostly cloudy 10 - - - -
29/05:30am 24.5 CALM 0 0 1004.0 - 0.0 - Partly cloudy 10 - - - -
29/05:00am 24.6 CALM 0 0 1003.4 - 0.0 - Partly cloudy 10 - - - -
29/04:30am 24.7 CALM 0 0 1003.1 - 0.0 - Partly cloudy 10 - - - -
29/04:00am 24.7 CALM 0 0 1003.1 - 0.0 - Partly cloudy 10 - - - -
29/03:30am 25.0 CALM 0 0 1003.2 - 0.0 - Partly cloudy 10 - - - -
29/03:00am 24.9 CALM 0 0 1003.2 - 0.0 - - 10 - - - -
29/02:30am 25.1 CALM 0 0 1003.5 - 0.0 - - 10 - - - -
29/02:00am 25.3 CALM 0 0 1003.8 - 0.0 - - 10 - - - -
29/01:30am 25.6 CALM 0 0 1004.4 - 0.0 - - 10 - - - -
29/01:00am 25.8 CALM 0 0 1004.6 - 0.0 - - 10 - - - -
29/12:30am 25.9 E 1 3 1005.1 - 0.0 - - 10 - - - -
29/12:00am 26.0 CALM 0 0 1005.5 - 0.0 - - 10 - - - -
 
Date/Time
CST
Temp

°C
Wind Pressure Rain
since 9am
mm
Weather Cloud Vis
km
Sea
Height
m
Swell
Dir
 
Speed
knots
Gust
knots
hPa Trend Height
m
Period
s
Dir
28/11:30pm 26.0 CALM 0 0 1005.7 - 0.0 - - 10 - - - -
28/11:00pm 26.1 CALM 0 0 1005.9 - 0.0 - - 10 - - - -
28/10:30pm 26.2 CALM 0 0 1005.7 - 0.0 - - 10 - - - -
28/10:00pm 26.6 CALM 0 0 1005.4 - 0.0 - - 10 - - - -
28/09:30pm 26.6 CALM 0 0 1004.9 - 0.0 - - 10 - - - -
28/09:00pm 27.3 E 3 4 1004.6 - 0.0 - - 10 - - - -
28/08:30pm 28.0 NE 3 4 1004.3 - 0.0 - - 10 - - - -
28/08:00pm 28.3 ENE 3 4 1004.1 - 0.0 - - 10 - - - -
28/07:30pm 29.0 ESE 1 4 1003.9 - 0.0 - - 10 - - - -
28/07:00pm 29.7 SSE 1 5 1003.6 - 0.0 - - 10 - - - -
28/06:30pm 30.4 S 4 7 1002.9 - 0.0 - - 10 - - - -
28/06:00pm 31.4 SSE 5 9 1002.4 - 0.0 - Mostly clear 10 - - - -
28/05:30pm 31.1 ENE 4 6 1002.1 - 0.0 - Partly cloudy 10 - - - -
28/05:00pm 31.6 SSE 3 5 1001.8 - 0.0 - - 10 - - - -
28/04:30pm 30.0 CALM 0 2 1001.6 - 0.0 - Partly cloudy 10 - - - -
28/04:00pm 28.3 SSE 3 5 1001.8 - 0.0 - - 10 - - - -
28/03:30pm 28.6 E 8 11 1002.3 - 0.0 - Partly cloudy 10 - - - -
28/03:03pm 28.0 E 15 27 1002.8 - 0.0 - Partly cloudy 10 - - - -
28/03:00pm 28.2 E 13 18 1003.0 - 0.0 Showers Cloudy 10 - - - -
28/02:30pm 29.3 NNE 13 20 1003.0 - 0.0 - Partly cloudy 10 - - - -
28/02:00pm 32.1 WSW 7 13 1002.3 - 0.0 - - 10 - - - -
28/01:30pm 31.9 W 9 13 1002.4 - 0.0 - - 10 - - - -
28/01:00pm 32.0 WSW 6 9 1002.7 - 0.0 - Partly cloudy 10 - - - -
28/12:30pm 31.4 W 7 12 1003.1 - 0.0 - Partly cloudy 10 - - - -
28/12:00pm 31.1 WSW 6 9 1003.4 - 0.0 - Mostly clear 10 - - - -
28/11:30am 31.2 WSW 5 8 1003.7 - 0.0 - Partly cloudy 10 - - - -
28/11:00am 31.1 W 7 11 1004.1 - 0.0 - Partly cloudy 10 - - - -
28/10:30am 31.1 WSW 6 9 1004.3 - 0.0 - Partly cloudy 10 - - - -
28/10:00am 30.6 SW 4 7 1004.3 - 0.0 - Partly cloudy 10 - - - -
28/09:30am 30.4 SSW 4 7 1004.4 - 0.0 - Partly cloudy 10 - - - -
28/09:00am 30.1 SSE 1 3 1004.3 - 0.2 - Mostly cloudy 10 - - - -
28/08:30am 28.8 CALM 0 3 1004.2 - 0.2 - - 10 - - - -
28/08:00am 27.6 ENE 1 3 1004.3 - 0.2 - - 10 - - - -
28/07:30am 26.9 CALM 0 0 1004.1 - 0.2 - - 10 - - - -
28/07:00am 26.4 CALM 0 4 1004.1 - 0.2 - - 10 - - - -
28/06:30am 26.1 E 1 4 1004.0 - 0.2 - Cloudy 10 - - - -
28/06:00am 26.2 CALM 0 0 1003.8 - 0.2 - Cloudy 10 - - - -
28/05:30am 26.1 SSW 4 5 1003.1 - 0.2 - Cloudy 10 - - - -
28/05:00am 25.7 SSW 4 6 1002.9 - 0.2 - Partly cloudy 10 - - - -
28/04:30am 25.9 E 3 4 1002.6 - 0.2 - - 10 - - - -
28/04:00am 26.5 NE 3 4 1002.6 - 0.2 - - 10 - - - -
28/03:30am 26.4 NNE 5 6 1002.7 - 0.2 - Partly cloudy 10 - - - -
28/03:00am 26.4 ENE 1 5 1003.1 - 0.2 - Cloudy 10 - - - -
28/02:30am 26.6 CALM 0 0 1003.4 - 0.2 - Cloudy 10 - - - -
28/02:00am 26.6 N 3 5 1003.7 - 0.2 - Cloudy 10 - - - -
28/01:30am 26.6 CALM 0 0 1003.9 - 0.2 - Cloudy 10 - - - -
28/01:00am 26.3 CALM 0 0 1004.0 - 0.2 - Cloudy 10 - - - -
28/12:30am 26.3 SE 1 3 1004.6 - 0.2 - Partly cloudy 10 - - - -
28/12:00am 26.5 CALM 0 2 1005.0 - 0.2 - Cloudy 10 - - - -
 
Date/Time
CST
Temp

°C
Wind Pressure Rain
since 9am
mm
Weather Cloud Vis
km
Sea
Height
m
Swell
Dir
 
Speed
knots
Gust
knots
hPa Trend Height
m
Period
s
Dir
27/11:30pm 26.6 ESE 1 3 1005.1 - 0.2 - - 10 - - - -
27/11:00pm 26.3 ESE 2 3 1005.3 - 0.2 - - 10 - - - -
27/10:30pm 26.3 SE 2 3 1005.3 - 0.2 - - 10 - - - -
27/10:00pm 26.5 CALM 0 0 1005.1 - 0.2 - - 10 - - - -
27/09:30pm 26.6 CALM 0 0 1004.5 - 0.2 - - 10 - - - -
27/09:00pm 26.9 E 1 3 1004.6 - 0.2 - - 10 - - - -
27/08:30pm 27.2 CALM 0 0 1004.3 - 0.2 - - 10 - - - -
27/08:00pm 27.9 CALM 0 0 1004.2 - 0.2 - - 10 - - - -
27/07:30pm 28.5 SE 2 4 1003.6 - 0.2 - - 10 - - - -
27/07:00pm 29.3 ESE 3 6 1003.2 - 0.2 - Partly cloudy 10 - - - -
27/06:30pm 30.4 SE 4 6 1002.8 - 0.2 - Partly cloudy 10 - - - -
27/06:00pm 30.9 SSE 4 6 1002.5 - 0.2 - Mostly clear 10 - - - -
27/05:30pm 31.0 SSE 5 9 1002.5 - 0.2 - - 10 - - - -
27/05:00pm 31.2 SW 4 7 1002.5 - 0.2 - - 10 - - - -
27/04:30pm 30.3 SW 5 8 1002.5 - 0.2 - - 10 - - - -
27/04:00pm 29.7 SW 6 11 1002.6 - 0.2 - - 10 - - - -
27/03:30pm 30.5 SW 5 9 1002.9 - 0.2 - - 10 - - - -
27/03:00pm 30.5 W 7 10 1003.1 - 0.2 - Mostly clear 10 - - - -
27/02:30pm 29.6 W 8 13 1003.4 - 0.2 - Partly cloudy 10 - - - -

Other Formats:

Comma delimited format used in spreadsheet applications
http://www.bom.gov.au/fwo/IDD60701/IDD60701.94153.axf

JavaScript Object Notation format (JSON) in row-major order
http://www.bom.gov.au/fwo/IDD60701/IDD60701.94153.json